Data for 11/03/2005

Time Sea-Level Adjusted Pressure Absolute Pressure Temperature Relative Humidity Dew Point   
(mb) (inHg) (mb) (inHg) (C) (F) (%) (C) (F)
00:05 1007 29.74 836 24.69 1.8 35.3 97 1.3 34.4
00:10 1007 29.74 837 24.72 1.7 35.1 97 1.3 34.4
00:15 1008 29.77 837 24.72 1.5 34.7 97 1.1 33.9
00:20 1008 29.77 837 24.72 1.2 34.1 97 0.8 33.4
00:25 1008 29.77 837 24.72 0.9 33.6 97 0.5 32.9
00:30 1008 29.77 837 24.72 0.7 33.3 97 0.3 32.6
00:35 1008 29.77 837 24.72 0.5 32.9 98 0.2 32.4
00:40 1008 29.77 837 24.72 0.5 32.8 98 0.2 32.3
00:45 1008 29.77 837 24.72 0.3 32.5 99 0.1 32.1
00:50 1007 29.74 837 24.72 0.1 32.3 99 0 32
00:55 1007 29.74 837 24.72 0.2 32.3 99 0.1 32.2
01:00 1007 29.74 836 24.69 0.2 32.3 100 0.1 32.2
01:05 1007 29.74 836 24.69 0.2 32.3 100 0.1 32.2
01:10 1007 29.74 836 24.69 0.2 32.4 100 0.2 32.3
01:15 1007 29.74 836 24.69 0.3 32.5 100 0.2 32.4
01:20 1007 29.74 836 24.69 0.3 32.6 100 0.3 32.6
01:25 1007 29.74 836 24.69 0.5 32.8 100 0.4 32.7
01:30 1006 29.71 835 24.66 0.5 33 99 0.4 32.7
01:35 1006 29.71 835 24.66 0.6 33 98 0.3 32.6
01:40 1006 29.71 835 24.66 0.7 33.2 98 0.4 32.7
01:45 1006 29.71 835 24.66 0.9 33.6 97 0.4 32.7
01:50 1006 29.71 835 24.66 1 33.8 96 0.5 32.8
01:55 1006 29.71 835 24.66 0.9 33.6 96 0.4 32.7
02:00 1006 29.71 835 24.66 1 33.8 95 0.3 32.6
02:05 1006 29.71 835 24.66 1.4 34.5 94 0.5 32.9
02:10 1006 29.71 835 24.66 1.6 34.9 93 0.5 32.9
02:15 1006 29.71 835 24.66 1.9 35.4 91 0.5 32.9
02:20 1006 29.71 835 24.66 2.1 35.7 91 0.8 33.5
02:25 1006 29.71 836 24.69 2 35.6 91 0.7 33.2
02:30 1007 29.74 836 24.69 2 35.6 91 0.7 33.2
02:35 1007 29.74 836 24.69 2 35.6 91 0.6 33.2
02:40 1007 29.74 836 24.69 1.7 35 92 0.5 32.8
02:45 1007 29.74 836 24.69 1.7 35 93 0.6 33.1
02:50 1007 29.74 836 24.69 1.8 35.2 92 0.7 33.2
02:55 1007 29.74 836 24.69 1.8 35.2 93 0.8 33.5
03:00 1007 29.74 836 24.69 1.6 34.9 94 0.8 33.4
03:05 1007 29.74 836 24.69 1.4 34.5 96 0.7 33.3
03:10 1007 29.74 836 24.69 1.2 34.2 96 0.7 33.3
03:15 1007 29.74 836 24.69 1.3 34.3 97 0.8 33.5
03:20 1007 29.74 836 24.69 1.2 34.1 97 0.8 33.4
03:25 1007 29.74 836 24.69 1.2 34.2 97 0.8 33.4
03:30 1008 29.77 837 24.72 1.1 34 97 0.8 33.4
03:35 1008 29.77 837 24.72 1 33.8 98 0.7 33.3
03:40 1008 29.77 837 24.72 1 33.8 98 0.7 33.3
03:45 1008 29.77 837 24.72 0.9 33.6 98 0.6 33.1
03:50 1008 29.77 837 24.72 0.9 33.7 98 0.7 33.3
03:55 1008 29.77 837 24.72 1 33.8 98 0.8 33.4
04:00 1008 29.77 837 24.72 1 33.9 98 0.8 33.4
04:05 1008 29.77 837 24.72 1.1 33.9 98 0.7 33.3
04:10 1008 29.77 837 24.72 0.9 33.7 97 0.6 33
04:15 1008 29.77 837 24.72 0.7 33.2 98 0.4 32.7
04:20 1008 29.77 837 24.72 0.5 32.9 99 0.3 32.5
04:25 1008 29.77 837 24.72 0.7 33.2 99 0.5 32.9
04:30 1008 29.77 837 24.72 0.9 33.7 99 0.7 33.3
04:35 1008 29.77 837 24.72 1.1 33.9 98 0.8 33.5
04:40 1008 29.77 837 24.72 1.1 34 98 0.8 33.4
04:45 1008 29.77 837 24.72 1.2 34.1 97 0.8 33.4
04:50 1008 29.77 837 24.72 1.3 34.3 97 0.8 33.5
04:55 1008 29.77 837 24.72 1.4 34.4 96 0.8 33.4
05:00 1008 29.77 837 24.72 1.4 34.6 95 0.8 33.4
05:05 1008 29.77 837 24.72 1.5 34.8 96 0.9 33.7
05:10 1008 29.77 838 24.75 1.6 34.9 95 0.9 33.6
05:15 1009 29.8 838 24.75 1.6 34.9 95 0.9 33.7
05:20 1009 29.8 838 24.75 1.4 34.6 96 0.9 33.6
05:25 1008 29.77 838 24.75 1.4 34.5 96 0.9 33.5
05:30 1008 29.77 838 24.75 1.3 34.4 97 0.9 33.6
05:35 1009 29.8 838 24.75 1.1 34 98 0.8 33.4
05:40 1009 29.8 838 24.75 1 33.7 98 0.7 33.2
05:45 1009 29.8 838 24.75 0.8 33.5 98 0.6 33
05:50 1009 29.8 838 24.75 0.7 33.2 99 0.5 32.9
05:55 1009 29.8 838 24.75 0.6 33.1 99 0.4 32.8
06:00 1009 29.8 838 24.75 0.5 32.9 99 0.3 32.6
06:05 1009 29.8 839 24.78 0.5 32.9 99 0.3 32.6
06:10 1009 29.8 839 24.78 0.4 32.7 99 0.2 32.4
06:15 1010 29.83 839 24.78 0.4 32.7 99 0.2 32.4
06:20 1010 29.83 839 24.78 0.3 32.6 99 0.2 32.4
06:25 1010 29.83 839 24.78 0.3 32.5 99 0.1 32.2
06:30 1010 29.83 839 24.78 0.3 32.5 99 0.2 32.3
06:35 1010 29.83 839 24.78 0.3 32.5 99 0.2 32.3
06:40 1010 29.83 839 24.78 0.4 32.6 99 0.2 32.4
06:45 1010 29.83 839 24.78 0.4 32.7 99 0.2 32.4
06:50 1010 29.83 840 24.81 0.3 32.6 99 0.2 32.4
06:55 1010 29.83 840 24.81 0.4 32.6 99 0.2 32.4
07:00 1011 29.85 840 24.81 0.3 32.6 99 0.2 32.4
07:05 1011 29.85 840 24.81 0.3 32.6 99 0.2 32.3
07:10 1011 29.85 840 24.81 0.3 32.6 99 0.2 32.3
07:15 1011 29.85 840 24.81 0.3 32.6 99 0.1 32.3
07:20 1011 29.85 840 24.81 0.4 32.7 98 0.1 32.2
07:25 1011 29.85 840 24.81 0.3 32.6 98 0.1 32.1
07:30 1011 29.85 840 24.81 0.5 32.9 98 0.1 32.2
07:35 1011 29.85 840 24.81 0.5 32.9 97 0.1 32.2
07:40 1011 29.85 840 24.81 0.6 33 97 0.1 32.2
07:45 1011 29.85 841 24.83 0.7 33.2 97 0.2 32.3
07:50 1012 29.88 841 24.83 0.7 33.2 96 0.1 32.2
07:55 1012 29.88 841 24.83 0.8 33.4 95 0 32
08:00 1012 29.88 841 24.83 0.8 33.4 96 0.1 32.3
08:05 1012 29.88 841 24.83 0.7 33.3 95 0 32
08:10 1012 29.88 841 24.83 0.9 33.5 93 -0.1 31.8
08:15 1012 29.88 841 24.83 1 33.8 92 -0.1 31.8
08:20 1012 29.88 841 24.83 1 33.7 92 -0.2 31.6
08:25 1012 29.88 841 24.83 1 33.8 91 -0.3 31.4
08:30 1012 29.88 841 24.83 1.2 34.2 88 -0.5 31.1
08:35 1012 29.88 841 24.83 1.5 34.6 86 -0.6 30.9
08:40 1012 29.88 841 24.83 1.5 34.7 86 -0.7 30.8
08:45 1012 29.88 841 24.83 1.6 34.9 85 -0.6 31
08:50 1012 29.88 841 24.83 1.6 34.8 86 -0.6 31
08:55 1012 29.88 842 24.86 1.2 34.2 87 -0.7 30.8
09:00 1012 29.88 842 24.86 1.3 34.4 86 -0.7 30.8
09:05 1012 29.88 842 24.86 1.5 34.6 85 -0.8 30.6
09:10 1013 29.91 842 24.86 1.2 34.2 86 -0.9 30.4
09:15 1013 29.91 842 24.86 1.2 34.1 86 -0.9 30.3
09:20 1013 29.91 842 24.86 1.4 34.5 83 -1.2 29.9
09:25 1013 29.91 842 24.86 1.7 35 84 -0.8 30.6
09:30 1013 29.91 842 24.86 1.9 35.4 81 -1.1 30.1
09:35 1013 29.91 842 24.86 1.7 35.1 81 -1.2 29.8
09:40 1013 29.91 842 24.86 1.7 35 80 -1.5 29.3
09:45 1013 29.91 842 24.86 1.7 35.1 81 -1.2 29.8
09:50 1013 29.91 842 24.86 1.9 35.4 79 -1.3 29.7
09:55 1013 29.91 842 24.86 2 35.7 77 -1.6 29.1
10:00 1013 29.91 842 24.86 2.2 35.9 78 -1.2 29.8
10:05 1013 29.91 842 24.86 2.1 35.8 77 -1.4 29.4
10:10 1013 29.91 842 24.86 2.2 35.9 76 -1.6 29.2
10:15 1013 29.91 842 24.86 2.4 36.3 77 -1.2 29.8
10:20 1013 29.91 842 24.86 2.5 36.4 78 -1.1 30.1
10:25 1013 29.91 842 24.86 2.7 36.8 76 -1.2 29.9
10:30 1013 29.91 842 24.86 3.5 38.2 72 -1.1 30
10:35 1013 29.91 842 24.86 3.8 38.9 73 -0.5 31
10:40 1013 29.91 842 24.86 3.2 37.8 74 -1 30.2
10:45 1013 29.91 842 24.86 3.3 38 72 -1.2 29.8
10:50 1013 29.91 842 24.86 2.8 37 74 -1.4 29.6
10:55 1013 29.91 842 24.86 2.9 37.2 74 -1.3 29.7
11:00 1013 29.91 842 24.86 3.1 37.5 75 -1 30.3
11:05 1013 29.91 842 24.86 3.3 37.9 75 -0.8 30.5
11:10 1013 29.91 842 24.86 3.4 38.1 76 -0.4 31.3
11:15 1013 29.91 842 24.86 3.3 38 74 -0.8 30.5
11:20 1013 29.91 842 24.86 3.2 37.7 73 -1.2 29.9
11:25 1013 29.91 842 24.86 3.5 38.2 72 -1.1 30
11:30 1013 29.91 842 24.86 3.7 38.7 71 -1 30.1
11:35 1013 29.91 842 24.86 3.8 38.8 71 -0.9 30.3
11:40 1012 29.88 842 24.86 3.7 38.7 70 -1.3 29.7
11:45 1012 29.88 842 24.86 3.7 38.6 70 -1.3 29.6
11:50 1012 29.88 842 24.86 3.7 38.6 70 -1.3 29.6
11:55 1012 29.88 842 24.86 3.9 38.9 71 -1 30.3
12:00 1012 29.88 842 24.86 3.8 38.8 70 -1.3 29.7
12:05 1012 29.88 841 24.83 3.2 37.7 73 -1.2 29.9
12:10 1012 29.88 841 24.83 3.1 37.5 72 -1.4 29.4
12:15 1012 29.88 841 24.83 3 37.5 74 -1.2 29.9
12:20 1012 29.88 841 24.83 3.3 38 71 -1.4 29.5
12:25 1012 29.88 841 24.83 3.6 38.4 70 -1.3 29.6
12:30 1012 29.88 841 24.83 3.5 38.4 70 -1.4 29.5
12:35 1012 29.88 841 24.83 3.5 38.4 70 -1.4 29.5
12:40 1012 29.88 841 24.83 3.7 38.6 69 -1.5 29.4
12:45 1012 29.88 841 24.83 3.2 37.8 71 -1.5 29.4
12:50 1012 29.88 841 24.83 3.2 37.7 72 -1.5 29.4
12:55 1012 29.88 841 24.83 3 37.4 72 -1.6 29.2
13:00 1012 29.88 841 24.83 3.1 37.5 71 -1.6 29
13:05 1012 29.88 841 24.83 3.4 38.1 68 -1.9 28.5
13:10 1012 29.88 841 24.83 3.7 38.6 69 -1.4 29.4
13:15 1012 29.88 841 24.83 3.8 38.9 68 -1.6 29.2
13:20 1012 29.88 841 24.83 4.1 39.3 67 -1.6 29.1
13:25 1012 29.88 841 24.83 4.5 40 62 -2.2 28.1
13:30 1012 29.88 841 24.83 4.7 40.5 59 -2.6 27.4
13:35 1012 29.88 841 24.83 5 41 56 -3.1 26.5
13:40 1012 29.88 841 24.83 5 41 57 -2.8 26.9
13:45 1012 29.88 841 24.83 4.9 40.7 57 -2.9 26.8
13:50 1012 29.88 841 24.83 4.8 40.7 59 -2.6 27.4
13:55 1011 29.85 841 24.83 5 41 58 -2.5 27.4
14:00 1011 29.85 841 24.83 4.7 40.5 64 -1.6 29.2
14:05 1011 29.85 841 24.83 4.3 39.8 62 -2.4 27.7
14:10 1011 29.85 841 24.83 4.2 39.6 64 -2 28.5
14:15 1011 29.85 841 24.83 4.2 39.6 61 -2.5 27.4
14:20 1011 29.85 841 24.83 4.2 39.6 62 -2.5 27.5
14:25 1011 29.85 840 24.81 4.3 39.7 61 -2.6 27.4
14:30 1011 29.85 840 24.81 4.1 39.4 63 -2.4 27.7
14:35 1011 29.85 840 24.81 4.1 39.4 61 -2.6 27.3
14:40 1011 29.85 840 24.81 4 39.2 63 -2.5 27.6
14:45 1011 29.85 840 24.81 4 39.2 60 -3 26.6
14:50 1011 29.85 840 24.81 4.1 39.3 62 -2.5 27.5
14:55 1011 29.85 840 24.81 4.2 39.5 59 -3 26.6
15:00 1010 29.83 840 24.81 4.3 39.8 59 -3.1 26.5
15:05 1010 29.83 840 24.81 4.6 40.4 58 -3 26.6
15:10 1010 29.83 840 24.81 4.6 40.2 59 -2.7 27.2
15:15 1010 29.83 839 24.78 4.7 40.5 59 -2.7 27.1
15:20 1010 29.83 839 24.78 4.9 40.9 59 -2.5 27.5
15:25 1010 29.83 839 24.78 5 40.9 60 -2.2 28
15:30 1010 29.83 839 24.78 5 40.9 60 -2.2 28.1
15:35 1010 29.83 839 24.78 5.1 41.2 58 -2.4 27.7
15:40 1010 29.83 839 24.78 5.9 42.7 55 -2.3 27.9
15:45 1010 29.83 839 24.78 6 42.8 56 -2.1 28.3
15:50 1010 29.83 839 24.78 5.8 42.4 57 -2.2 28.1
15:55 1010 29.83 839 24.78 5.8 42.5 56 -2.4 27.7
16:00 1010 29.83 839 24.78 5.6 42.1 56 -2.6 27.4
16:05 1010 29.83 839 24.78 5.6 42 57 -2.3 27.9
16:10 1010 29.83 839 24.78 5.8 42.5 56 -2.2 28
16:15 1010 29.83 839 24.78 5.9 42.7 56 -2.1 28.3
16:20 1010 29.83 839 24.78 5.8 42.5 55 -2.6 27.3
16:25 1010 29.83 839 24.78 5.2 41.4 56 -2.9 26.8
16:30 1010 29.83 839 24.78 5.1 41.1 57 -2.8 27
16:35 1010 29.83 839 24.78 4.8 40.7 57 -2.9 26.7
16:40 1010 29.83 839 24.78 4.4 40 57 -3.2 26.2
16:45 1010 29.83 839 24.78 4.2 39.5 58 -3.3 26
16:50 1010 29.83 839 24.78 4.1 39.3 57 -3.6 25.5
16:55 1010 29.83 839 24.78 4 39.1 54 -4.5 23.9
17:00 1010 29.83 839 24.78 3.7 38.6 55 -4.6 23.8
17:05 1010 29.83 839 24.78 3.4 38.1 54 -5 23
17:10 1009 29.8 839 24.78 3.3 38 54 -5.2 22.6
17:15 1009 29.8 839 24.78 3.6 38.4 50 -5.8 21.6
17:20 1009 29.8 839 24.78 3.6 38.4 51 -5.6 22
17:25 1009 29.8 838 24.75 3.6 38.6 49 -6 21.2
17:30 1009 29.8 838 24.75 3.7 38.6 50 -5.7 21.7
17:35 1009 29.8 838 24.75 3.5 38.2 51 -5.9 21.5
17:40 1009 29.8 838 24.75 3.3 38 53 -5.4 22.3
17:45 1009 29.8 838 24.75 3.2 37.7 53 -5.6 21.9
17:50 1009 29.8 838 24.75 3.2 37.7 49 -6.4 20.4
17:55 1009 29.8 838 24.75 3.2 37.8 49 -6.6 20.2
18:00 1009 29.8 838 24.75 3.3 37.9 51 -6 21.2
18:05 1009 29.8 838 24.75 3.3 37.9 51 -6 21.1
18:10 1009 29.8 838 24.75 3.4 38.2 44 -7.6 18.3
18:15 1009 29.8 838 24.75 3.6 38.5 49 -6 21.2
18:20 1009 29.8 838 24.75 3.2 37.7 51 -5.9 21.4
18:25 1009 29.8 838 24.75 2.8 37.1 54 -5.6 22
18:30 1009 29.8 838 24.75 2.7 36.8 55 -5.5 22.1
18:35 1009 29.8 838 24.75 2.7 36.9 55 -5.3 22.4
18:40 1009 29.8 838 24.75 2.5 36.5 57 -5.2 22.7
18:45 1009 29.8 838 24.75 2.3 36.2 62 -4.3 24.3
18:50 1009 29.8 838 24.75 2 35.5 61 -4.7 23.6
18:55 1009 29.8 838 24.75 2 35.7 60 -4.8 23.3
19:00 1009 29.8 838 24.75 2.1 35.7 62 -4.4 24.1
19:05 1009 29.8 838 24.75 2.2 36 51 -6.9 19.6
19:10 1009 29.8 838 24.75 3.3 37.9 51 -5.9 21.4
19:15 1009 29.8 838 24.75 3.3 38 51 -6 21.2
19:20 1009 29.8 838 24.75 3.3 38 51 -5.9 21.4
19:25 1008 29.77 838 24.75 3.3 37.9 52 -5.6 21.8
19:30 1008 29.77 838 24.75 3.3 38 52 -5.6 22
19:35 1008 29.77 838 24.75 3.3 38 52 -5.5 22.1
19:40 1008 29.77 837 24.72 3.1 37.6 53 -5.5 22.1
19:45 1008 29.77 837 24.72 2.9 37.3 55 -5.2 22.6
19:50 1008 29.77 837 24.72 2.7 36.9 55 -5.3 22.4
19:55 1008 29.77 837 24.72 2.9 37.2 51 -6.3 20.7
20:00 1008 29.77 837 24.72 3.3 38 51 -5.8 21.6
20:05 1008 29.77 837 24.72 3.3 38 54 -5 23
20:10 1008 29.77 837 24.72 2.7 36.9 58 -4.7 23.6
20:15 1008 29.77 837 24.72 2.4 36.3 61 -4.3 24.2
20:20 1008 29.77 837 24.72 2 35.6 65 -3.9 24.9
20:25 1008 29.77 837 24.72 1.7 35.1 65 -4.1 24.7
20:30 1008 29.77 837 24.72 1.7 35 66 -3.9 25
20:35 1008 29.77 837 24.72 1.5 34.7 69 -3.6 25.5
20:40 1008 29.77 837 24.72 1.4 34.5 69 -3.7 25.3
20:45 1008 29.77 837 24.72 1.4 34.5 69 -3.7 25.4
20:50 1008 29.77 837 24.72 1.3 34.3 70 -3.6 25.4
20:55 1008 29.77 837 24.72 1.2 34.2 70 -3.6 25.5
21:00 1008 29.77 837 24.72 1.3 34.3 70 -3.6 25.6
21:05 1008 29.77 837 24.72 1.3 34.4 71 -3.4 25.9
21:10 1008 29.77 837 24.72 1.2 34.2 71 -3.5 25.7
21:15 1008 29.77 837 24.72 1.2 34.2 72 -3.3 26.1
21:20 1008 29.77 837 24.72 1.1 34 73 -3.2 26.2
21:25 1008 29.77 837 24.72 1.1 33.9 73 -3.2 26.2
21:30 1008 29.77 837 24.72 1 33.9 73 -3.3 26.1
21:35 1008 29.77 837 24.72 1.1 34 73 -3.2 26.2
21:40 1008 29.77 837 24.72 1.1 33.9 74 -3 26.5
21:45 1008 29.77 837 24.72 1 33.8 76 -2.8 27
21:50 1008 29.77 837 24.72 0.9 33.7 74 -3.1 26.4
21:55 1008 29.77 837 24.72 1.3 34.3 71 -3.4 25.9
22:00 1008 29.77 837 24.72 1.4 34.5 72 -3.1 26.4
22:05 1007 29.74 837 24.72 1.3 34.3 71 -3.3 26
22:10 1007 29.74 837 24.72 1.5 34.8 70 -3.4 25.9
22:15 1007 29.74 836 24.69 1.5 34.7 70 -3.4 25.8
22:20 1007 29.74 836 24.69 1.7 35 70 -3.2 26.2
22:25 1007 29.74 836 24.69 1.6 34.8 72 -3 26.6
22:30 1007 29.74 836 24.69 1.5 34.8 73 -2.7 27.1
22:35 1007 29.74 836 24.69 1.5 34.7 73 -2.8 27
22:40 1007 29.74 836 24.69 1.6 34.8 73 -2.8 26.9
22:45 1007 29.74 836 24.69 1.6 34.9 73 -2.8 27
22:50 1007 29.74 836 24.69 1.6 34.9 72 -3 26.7
22:55 1007 29.74 836 24.69 1.7 35 73 -2.7 27.1
23:00 1007 29.74 836 24.69 1.6 34.8 74 -2.6 27.3
23:05 1007 29.74 836 24.69 1.4 34.6 75 -2.5 27.6
23:10 1007 29.74 836 24.69 1.4 34.5 76 -2.4 27.8
23:15 1007 29.74 836 24.69 1.2 34.1 77 -2.5 27.5
23:20 1007 29.74 836 24.69 1.3 34.4 76 -2.5 27.5
23:25 1007 29.74 836 24.69 1.5 34.6 75 -2.4 27.7
23:30 1006 29.71 836 24.69 1.5 34.7 74 -2.6 27.3
23:35 1006 29.71 836 24.69 1.5 34.8 74 -2.6 27.3
23:40 1006 29.71 836 24.69 1.6 34.8 74 -2.6 27.4
23:45 1006 29.71 836 24.69 1.6 35 73 -2.7 27.2
23:50 1006 29.71 835 24.66 1.8 35.2 72 -2.8 27
23:55 1006 29.71 835 24.66 1.9 35.5 72 -2.6 27.2
24:00 1006 29.71 835 24.66 2 35.5 72 -2.6 27.3